Etusivu
METAR-TAF:

METAR-TAF

Lentoasemat :

Værøy, Norja

Heliport

Leveyspiiri: 67-39-16N, Pituuspiiri: 12-43-37E, korkeus merenpinnasta: 5 m

Tämänhetkinen sää

Tämä raportti tehtiin 6 tuntia ja 48 minuuttia sitten, kello 05.50 UTC
Tuuli 3 kn lännestä
Lämpötila 5°C
Kosteus 87%
Ilmanpaine 1018 hPa
Näkyvyys 10 km tai enemmän
Muutamia pilviä 3000 ft:n korkeudessa
Hajanaisia pilviä 4500 ft:n korkeudessa
Hajonneita pilviä 7500 ft:n korkeudessa
sadekuuroja näköpiirissä

METAR: ENVR 190550Z 27003KT 9999 VCSH FEW030 SCT045 BKN075 05/03 Q1018

Aika: 14:38 (12:38 UTC)


TAF: puuttuu

Säähavainnot ja -ennusteet yli 4000 lentoasemalta (METAR- ja TAF-raportit).

Käytössä olevat sääasemat on merkitty karttaan keltaisilla ja punaisilla pisteillä.

Aseta hiiri pisteen päälle nähdäksesi sääaseman nimen.

Klikkaa sitten nähdäksesi säähavainnot ja -ennusteet.

Kartan vaihtaminen: klikkaa mustalla rastilla varustettuja vihreitä pisteitä, niin voit zoomata sisään; viivalla varustettua vihreää pistettä, niin voit zoomata ulos tai vihreitä nuolia, niin pääset viereisille kartoille.


METAR-TAF: